createdAt,value
2022-12-18T00:02:35.360Z,32.47
2022-12-18T00:06:21.558Z,23.50
2022-12-18T00:10:04.524Z,22.38
2022-12-18T00:13:48.419Z,27.87
2022-12-18T00:17:30.384Z,28.27
2022-12-18T00:21:13.651Z,80.17
2022-12-18T00:24:55.716Z,26.10
2022-12-18T00:28:38.477Z,28.27
2022-12-18T00:32:20.493Z,36.53
2022-12-18T00:36:07.378Z,19.43
2022-12-18T00:39:50.012Z,23.77
2022-12-18T00:43:35.200Z,23.03
2022-12-18T00:47:18.967Z,20.43
2022-12-18T00:51:03.686Z,41.30
2022-12-18T00:54:46.044Z,26.30
2022-12-18T00:58:29.157Z,19.63
2022-12-18T01:02:11.244Z,19.17
2022-12-18T01:05:53.240Z,32.40
2022-12-18T01:09:35.929Z,22.40
2022-12-18T01:13:18.069Z,26.37
2022-12-18T01:17:00.172Z,60.93
2022-12-18T01:20:42.396Z,34.93
2022-12-18T01:24:24.438Z,34.07
2022-12-18T01:28:06.434Z,21.07
2022-12-18T01:31:48.561Z,92.03
2022-12-18T01:35:30.643Z,49.60
2022-12-18T01:39:15.041Z,60.00
2022-12-18T01:42:56.999Z,24.33
2022-12-18T01:46:38.930Z,19.83
2022-12-18T01:50:42.850Z,17.87
2022-12-18T01:54:24.801Z,19.13
2022-12-18T01:58:07.014Z,21.67
2022-12-18T02:01:49.193Z,17.23
2022-12-18T02:05:39.320Z,26.47
2022-12-18T02:09:33.228Z,57.97
2022-12-18T02:13:38.704Z,24.20
2022-12-18T02:17:29.588Z,17.70
2022-12-18T02:21:24.391Z,17.43
2022-12-18T02:25:54.308Z,20.33
2022-12-18T02:29:50.539Z,20.37
2022-12-18T02:33:37.265Z,16.93
2022-12-18T02:37:21.364Z,22.83
2022-12-18T02:41:04.726Z,16.87
2022-12-18T02:44:49.345Z,14.37
2022-12-18T02:48:34.906Z,17.10
2022-12-18T02:52:29.911Z,14.07
2022-12-18T02:56:19.816Z,14.43
2022-12-18T03:00:11.554Z,14.77
2022-12-18T03:03:59.617Z,16.77
2022-12-18T03:07:51.751Z,19.03
2022-12-18T03:11:56.497Z,13.30
2022-12-18T03:15:50.744Z,14.53
2022-12-18T03:19:34.219Z,13.83
2022-12-18T03:23:26.401Z,11.00
2022-12-18T03:27:12.898Z,14.93
2022-12-18T03:31:00.275Z,11.77
2022-12-18T03:34:44.194Z,14.57
2022-12-18T03:38:26.229Z,14.13
2022-12-18T03:42:31.609Z,9.97
2022-12-18T03:46:20.488Z,12.93
2022-12-18T03:50:18.384Z,10.70
2022-12-18T03:54:03.768Z,13.47
2022-12-18T03:57:47.143Z,14.17
2022-12-18T04:01:36.027Z,12.60
2022-12-18T04:05:19.505Z,11.30
2022-12-18T04:09:01.935Z,12.60
2022-12-18T04:12:44.152Z,9.27
2022-12-18T04:16:27.193Z,13.23
2022-12-18T04:20:09.599Z,16.73
2022-12-18T04:23:51.507Z,13.97
2022-12-18T04:27:33.534Z,13.07
2022-12-18T04:31:15.734Z,11.73
2022-12-18T04:34:57.802Z,11.93
2022-12-18T04:38:39.990Z,14.47
2022-12-18T04:42:21.901Z,14.03
2022-12-18T04:46:05.732Z,12.30
2022-12-18T04:49:47.740Z,12.57
2022-12-18T04:53:29.753Z,9.90
2022-12-18T04:57:11.725Z,14.90
2022-12-18T05:00:53.620Z,12.53
2022-12-18T05:04:35.585Z,13.27
2022-12-18T05:08:17.572Z,11.57
2022-12-18T05:11:59.465Z,11.40
2022-12-18T05:15:42.961Z,13.20
2022-12-18T05:19:24.901Z,15.07
2022-12-18T05:23:06.819Z,10.63
2022-12-18T05:26:48.988Z,11.73
2022-12-18T05:30:30.985Z,14.03
2022-12-18T05:34:12.951Z,15.60
2022-12-18T05:37:54.989Z,15.80
2022-12-18T05:41:37.191Z,13.07
2022-12-18T05:45:19.140Z,12.87
2022-12-18T05:49:02.324Z,12.87
2022-12-18T05:52:44.303Z,41.80
2022-12-18T05:56:26.205Z,17.20
2022-12-18T06:00:09.059Z,23.70
2022-12-18T06:03:51.682Z,17.00
2022-12-18T06:07:33.827Z,16.50
2022-12-18T06:11:19.431Z,24.07
2022-12-18T06:15:01.710Z,19.40
2022-12-18T06:18:43.645Z,18.47
2022-12-18T06:22:26.071Z,21.03
2022-12-18T06:26:10.356Z,17.97
2022-12-18T06:29:52.445Z,18.13
2022-12-18T06:33:35.783Z,17.07
2022-12-18T06:37:17.819Z,21.23
2022-12-18T06:40:59.805Z,17.33
2022-12-18T06:44:41.911Z,22.20
2022-12-18T06:48:23.827Z,23.23
2022-12-18T06:52:06.241Z,17.07
2022-12-18T06:55:48.437Z,23.50
2022-12-18T06:59:30.506Z,16.87
2022-12-18T07:03:12.483Z,17.97
2022-12-18T07:06:54.513Z,20.47
2022-12-18T07:10:47.479Z,21.70
2022-12-18T07:14:30.969Z,18.60
2022-12-18T07:18:12.953Z,17.93
2022-12-18T07:21:55.642Z,25.90
2022-12-18T07:25:38.234Z,17.10
2022-12-18T07:29:20.259Z,17.93
2022-12-18T07:33:02.454Z,17.07
2022-12-18T07:36:44.707Z,16.53
2022-12-18T07:40:26.652Z,19.10
2022-12-18T07:44:12.079Z,18.00
2022-12-18T07:47:54.202Z,17.13
2022-12-18T07:51:36.514Z,14.93
2022-12-18T07:55:18.532Z,18.00
2022-12-18T07:59:03.686Z,13.73
2022-12-18T08:02:45.861Z,19.80
2022-12-18T08:06:28.083Z,14.60
2022-12-18T08:10:10.396Z,16.37
2022-12-18T08:13:52.474Z,14.50
2022-12-18T08:17:34.595Z,13.40
2022-12-18T08:21:24.172Z,13.87
2022-12-18T08:25:06.849Z,14.97
2022-12-18T08:28:49.747Z,17.80
2022-12-18T08:32:34.186Z,16.57
2022-12-18T08:36:16.130Z,19.53
2022-12-18T08:39:59.219Z,17.00
2022-12-18T08:44:00.029Z,14.93
2022-12-18T08:47:42.105Z,19.83
2022-12-18T08:51:24.387Z,20.50
2022-12-18T08:55:07.112Z,16.53
2022-12-18T08:58:52.182Z,15.23
2022-12-18T09:02:34.380Z,15.43
2022-12-18T09:06:18.577Z,17.27
2022-12-18T09:10:00.595Z,16.87
2022-12-18T09:13:42.928Z,19.17
2022-12-18T09:17:25.161Z,19.80
2022-12-18T09:21:20.111Z,17.80
2022-12-18T09:25:02.105Z,16.43
2022-12-18T09:28:44.874Z,13.83
2022-12-18T09:32:27.048Z,18.43
2022-12-18T09:36:12.558Z,17.53
2022-12-18T09:39:54.563Z,16.43
2022-12-18T09:43:50.874Z,17.07
2022-12-18T09:47:38.737Z,20.10
2022-12-18T09:51:28.964Z,19.17
2022-12-18T09:55:23.292Z,23.47
2022-12-18T09:59:06.373Z,17.40
2022-12-18T10:02:49.246Z,20.77
2022-12-18T10:06:44.738Z,19.50
2022-12-18T10:10:39.319Z,21.33
2022-12-18T10:14:24.006Z,21.10
2022-12-18T10:18:33.527Z,20.00
2022-12-18T10:22:50.074Z,21.57
2022-12-18T10:26:34.166Z,23.23
2022-12-18T10:30:21.058Z,19.00
2022-12-18T10:34:05.556Z,23.07
2022-12-18T10:38:07.746Z,21.93
2022-12-18T10:41:50.232Z,21.57
2022-12-18T10:45:32.337Z,25.37
2022-12-18T10:49:31.173Z,21.53
2022-12-18T10:53:21.509Z,20.73
2022-12-18T10:57:38.132Z,23.07
2022-12-18T11:01:23.700Z,22.67
2022-12-18T11:05:31.290Z,22.00
2022-12-18T11:09:27.232Z,23.47
2022-12-18T11:13:25.291Z,21.23
2022-12-18T11:17:25.969Z,19.33
2022-12-18T11:21:12.959Z,19.63
2022-12-18T11:29:19.202Z,15.70
2022-12-18T11:33:11.734Z,18.20
2022-12-18T11:36:54.293Z,11.77
2022-12-18T11:40:43.945Z,16.17
2022-12-18T11:44:32.114Z,16.10
2022-12-18T11:48:40.533Z,14.70
2022-12-18T11:52:24.648Z,14.13
2022-12-18T11:56:36.377Z,13.30
2022-12-18T12:00:20.953Z,12.37
2022-12-18T12:04:37.933Z,11.33
2022-12-18T12:09:03.903Z,13.93
2022-12-18T12:13:04.517Z,8.30
2022-12-18T12:17:12.204Z,7.23
2022-12-18T12:21:16.193Z,7.13
2022-12-18T12:25:34.237Z,8.73
2022-12-18T12:29:35.126Z,9.83
2022-12-18T12:33:32.561Z,7.73
2022-12-18T12:37:34.569Z,7.73
2022-12-18T12:41:41.506Z,8.13
2022-12-18T12:45:36.011Z,6.07
2022-12-18T12:49:25.659Z,6.50
2022-12-18T12:53:18.618Z,4.47
2022-12-18T12:57:28.169Z,5.60
2022-12-18T13:01:33.891Z,5.43
2022-12-18T13:05:31.509Z,5.23
2022-12-18T13:09:14.484Z,16.00
2022-12-18T13:13:08.975Z,4.50
2022-12-18T13:16:52.036Z,3.93
2022-12-18T13:20:40.041Z,3.77
2022-12-18T13:24:32.238Z,7.13
2022-12-18T13:28:17.445Z,3.83
2022-12-18T13:32:02.654Z,4.40
2022-12-18T13:35:47.898Z,2.80
2022-12-18T13:39:36.963Z,4.17
2022-12-18T13:43:20.831Z,3.17
2022-12-18T13:47:05.336Z,2.97
2022-12-18T13:50:56.333Z,4.03
2022-12-18T13:54:41.637Z,2.30
2022-12-18T13:58:24.274Z,3.53
2022-12-18T14:02:17.754Z,3.07
2022-12-18T14:06:09.563Z,3.43
2022-12-18T14:10:12.636Z,2.80
2022-12-18T14:14:02.028Z,4.77
2022-12-18T14:17:45.193Z,3.40
2022-12-18T14:21:34.142Z,6.13
2022-12-18T14:25:24.991Z,3.40
2022-12-18T14:29:28.733Z,5.73
2022-12-18T14:33:17.390Z,3.70
2022-12-18T14:37:00.365Z,4.77
2022-12-18T14:40:42.578Z,2.90
2022-12-18T14:44:25.363Z,3.03
2022-12-18T14:48:09.309Z,3.77
2022-12-18T14:52:05.058Z,3.67
2022-12-18T14:55:49.483Z,5.13
2022-12-18T14:59:33.522Z,2.43
2022-12-18T15:03:21.232Z,4.57
2022-12-18T15:07:12.303Z,4.80
2022-12-18T15:10:54.352Z,3.57
2022-12-18T15:14:42.732Z,2.60
2022-12-18T15:18:34.383Z,2.23
2022-12-18T15:22:32.046Z,2.60
2022-12-18T15:26:17.006Z,4.83
2022-12-18T15:30:05.251Z,4.20
2022-12-18T15:34:08.315Z,4.77
2022-12-18T15:37:52.197Z,4.33
2022-12-18T15:41:36.796Z,4.37
2022-12-18T15:45:26.653Z,3.57
2022-12-18T15:49:10.496Z,3.97
2022-12-18T15:53:00.795Z,3.13
2022-12-18T15:57:03.390Z,3.57
2022-12-18T16:00:46.799Z,2.90
2022-12-18T16:04:32.788Z,4.77
2022-12-18T16:08:17.417Z,4.63
2022-12-18T16:12:02.208Z,6.30
2022-12-18T16:15:44.463Z,5.77
2022-12-18T16:19:27.080Z,6.73
2022-12-18T16:23:12.584Z,6.57
2022-12-18T16:27:01.524Z,5.50
2022-12-18T16:30:44.478Z,6.40
2022-12-18T16:34:35.465Z,7.27
2022-12-18T16:38:27.132Z,6.60
2022-12-18T16:42:21.349Z,3.50
2022-12-18T16:46:04.089Z,7.37
2022-12-18T16:49:51.917Z,4.70
2022-12-18T16:53:54.371Z,4.13
2022-12-18T16:57:38.359Z,4.97
2022-12-18T17:01:21.120Z,4.97
2022-12-18T17:05:03.321Z,6.70
2022-12-18T17:08:45.382Z,7.13
2022-12-18T17:12:28.419Z,7.13
2022-12-18T17:16:10.659Z,7.70
2022-12-18T17:19:57.748Z,6.40
2022-12-18T17:23:40.533Z,8.37
2022-12-18T17:27:22.773Z,8.20
2022-12-18T17:31:23.998Z,8.10
2022-12-18T17:35:08.126Z,5.87
2022-12-18T17:39:09.243Z,7.53
2022-12-18T17:42:59.243Z,7.13
2022-12-18T17:46:42.956Z,7.53
2022-12-18T17:50:30.020Z,5.63
2022-12-18T17:54:15.204Z,6.37
2022-12-18T17:57:59.520Z,5.37
2022-12-18T18:01:45.726Z,6.37
2022-12-18T18:05:30.700Z,7.22
2022-12-18T18:09:16.769Z,9.53
2022-12-18T18:17:05.430Z,9.03
2022-12-18T18:20:47.868Z,7.23
2022-12-18T18:24:30.260Z,8.33
2022-12-18T18:28:12.327Z,9.57
2022-12-18T18:31:54.568Z,8.70
2022-12-18T18:35:58.596Z,8.30
2022-12-18T18:39:40.899Z,9.60
2022-12-18T18:43:25.841Z,8.10
2022-12-18T18:47:09.619Z,12.13
2022-12-18T18:51:04.447Z,5.57
2022-12-18T18:55:11.750Z,6.47
2022-12-18T18:58:52.099Z,4.00
2022-12-18T19:02:34.425Z,6.07
2022-12-18T19:06:25.346Z,10.13
2022-12-18T19:10:08.584Z,5.03
2022-12-18T19:13:52.201Z,6.23
2022-12-18T19:17:34.816Z,3.67
2022-12-18T19:21:19.423Z,7.70
2022-12-18T19:25:01.601Z,4.63
2022-12-18T19:28:44.842Z,5.20
2022-12-18T19:32:27.115Z,4.93
2022-12-18T19:36:21.646Z,4.77
2022-12-18T19:40:07.254Z,6.60
2022-12-18T19:43:55.529Z,6.20
2022-12-18T19:47:38.820Z,7.97
2022-12-18T19:51:24.632Z,5.17
2022-12-18T19:55:09.154Z,5.93
2022-12-18T19:58:51.663Z,7.90
2022-12-18T20:02:37.218Z,5.10
2022-12-18T20:06:35.173Z,3.60
2022-12-18T20:10:17.411Z,3.70
2022-12-18T20:14:02.342Z,5.40
2022-12-18T20:17:47.256Z,4.37
2022-12-18T20:21:29.578Z,3.53
2022-12-18T20:25:11.669Z,4.73
2022-12-18T20:28:55.962Z,2.93
2022-12-18T20:32:40.531Z,5.77
2022-12-18T20:36:23.504Z,4.87
2022-12-18T20:40:07.286Z,3.30
2022-12-18T20:43:51.152Z,3.63
2022-12-18T20:47:33.186Z,3.20
2022-12-18T20:51:19.802Z,3.60
2022-12-18T20:55:06.677Z,5.37
2022-12-18T20:58:55.223Z,3.83
2022-12-18T21:02:37.769Z,2.90
2022-12-18T21:06:22.810Z,3.77
2022-12-18T21:10:06.182Z,3.90
2022-12-18T21:13:48.622Z,4.27
2022-12-18T21:17:30.737Z,4.93
2022-12-18T21:21:19.640Z,7.18
2022-12-18T21:25:10.089Z,7.00
2022-12-18T21:28:57.177Z,7.07
2022-12-18T21:32:40.524Z,11.00
2022-12-18T21:36:25.010Z,6.27
2022-12-18T21:40:08.474Z,7.73
2022-12-18T21:44:06.882Z,12.10
2022-12-18T21:47:49.188Z,6.37
2022-12-18T21:51:32.581Z,9.43
2022-12-18T21:55:16.632Z,6.73
2022-12-18T21:58:58.816Z,10.47
2022-12-18T22:02:41.055Z,5.90
2022-12-18T22:06:25.180Z,4.93
2022-12-18T22:10:07.827Z,7.07
2022-12-18T22:13:50.438Z,5.83
2022-12-18T22:17:37.055Z,10.90
2022-12-18T22:21:34.594Z,9.97
2022-12-18T22:25:17.123Z,4.43
2022-12-18T22:29:17.716Z,6.93
2022-12-18T22:33:00.081Z,3.20
2022-12-18T22:36:44.848Z,5.10
2022-12-18T22:40:28.114Z,6.60
2022-12-18T22:44:10.946Z,6.57
2022-12-18T22:47:55.364Z,6.50
2022-12-18T22:51:37.319Z,4.23
2022-12-18T22:55:19.400Z,5.17
2022-12-18T22:59:01.444Z,4.43
2022-12-18T23:02:45.709Z,3.63
2022-12-18T23:06:28.638Z,4.03
2022-12-18T23:10:10.856Z,3.13
2022-12-18T23:13:54.149Z,2.87
2022-12-18T23:17:39.772Z,3.27
2022-12-18T23:21:23.423Z,1.53
2022-12-18T23:25:09.801Z,2.53
2022-12-18T23:28:55.278Z,4.25
2022-12-18T23:32:41.698Z,2.37
2022-12-18T23:40:08.550Z,1.40
2022-12-18T23:43:51.704Z,1.70
2022-12-18T23:47:33.724Z,1.33
2022-12-18T23:51:18.207Z,2.83
2022-12-18T23:55:01.235Z,3.90
2022-12-18T23:58:46.203Z,2.77
